createdAt,value
2017-07-10T00:01:37.810Z,22.90
2017-07-10T00:04:03.762Z,22.90
2017-07-10T00:06:30.405Z,22.70
2017-07-10T00:08:56.372Z,22.70
2017-07-10T00:11:22.336Z,22.70
2017-07-10T00:13:48.290Z,22.80
2017-07-10T00:16:14.328Z,22.80
2017-07-10T00:18:40.308Z,22.80
2017-07-10T00:21:06.217Z,22.70
2017-07-10T00:23:32.171Z,22.70
2017-07-10T00:25:58.138Z,22.70
2017-07-10T00:28:24.079Z,22.50
2017-07-10T00:30:50.461Z,22.50
2017-07-10T00:33:16.404Z,22.50
2017-07-10T00:35:42.328Z,22.80
2017-07-10T00:38:08.239Z,22.80
2017-07-10T00:40:34.154Z,22.80
2017-07-10T00:43:00.068Z,22.60
2017-07-10T00:45:26.011Z,22.50
2017-07-10T00:47:51.932Z,22.40
2017-07-10T00:50:17.869Z,22.30
2017-07-10T00:52:43.795Z,22.30
2017-07-10T00:55:09.752Z,22.30
2017-07-10T00:57:35.655Z,22.30
2017-07-10T01:00:01.696Z,22.30
2017-07-10T01:02:27.658Z,22.20
2017-07-10T01:04:53.626Z,22.10
2017-07-10T01:07:19.570Z,22.00
2017-07-10T01:09:45.643Z,22.00
2017-07-10T01:12:11.530Z,21.90
2017-07-10T01:14:37.439Z,22.00
2017-07-10T01:17:03.379Z,22.00
2017-07-10T01:19:29.306Z,21.90
2017-07-10T01:21:55.276Z,21.90
2017-07-10T01:24:21.225Z,22.00
2017-07-10T01:26:47.148Z,22.00
2017-07-10T01:29:13.069Z,22.00
2017-07-10T01:31:39.066Z,22.00
2017-07-10T01:34:04.983Z,22.00
2017-07-10T01:36:31.008Z,22.00
2017-07-10T01:38:56.975Z,22.00
2017-07-10T01:41:22.952Z,22.00
2017-07-10T01:43:49.759Z,21.80
2017-07-10T01:46:15.679Z,21.90
2017-07-10T01:48:41.622Z,21.80
2017-07-10T01:53:40.275Z,21.80
2017-07-10T01:56:06.237Z,22.00
2017-07-10T01:58:32.172Z,22.10
2017-07-10T02:00:58.203Z,22.20
2017-07-10T02:03:24.116Z,22.20
2017-07-10T02:05:50.051Z,22.20
2017-07-10T02:08:16.027Z,22.20
2017-07-10T02:10:41.988Z,22.30
2017-07-10T02:13:07.903Z,22.30
2017-07-10T02:15:33.841Z,22.40
2017-07-10T02:17:59.783Z,22.50
2017-07-10T02:20:25.725Z,22.50
2017-07-10T02:22:51.749Z,22.60
2017-07-10T02:25:17.701Z,22.50
2017-07-10T02:27:43.636Z,22.50
2017-07-10T02:30:09.605Z,22.30
2017-07-10T02:32:35.533Z,22.40
2017-07-10T02:35:01.508Z,22.40
2017-07-10T02:37:27.454Z,22.10
2017-07-10T02:39:53.422Z,21.90
2017-07-10T02:42:19.345Z,21.80
2017-07-10T02:44:45.332Z,21.90
2017-07-10T02:47:11.265Z,21.90
2017-07-10T02:49:37.205Z,22.00
2017-07-10T02:52:03.137Z,22.00
2017-07-10T02:54:29.107Z,22.00
2017-07-10T02:56:55.035Z,21.90
2017-07-10T02:59:21.021Z,21.90
2017-07-10T03:01:46.983Z,21.90
2017-07-10T03:04:12.907Z,21.80
2017-07-10T03:06:39.572Z,21.80
2017-07-10T03:09:05.506Z,21.80
2017-07-10T03:11:31.484Z,21.90
2017-07-10T03:13:57.436Z,22.00
2017-07-10T03:16:23.341Z,22.00
2017-07-10T03:18:49.339Z,22.00
2017-07-10T03:21:15.259Z,21.90
2017-07-10T03:23:41.232Z,21.90
2017-07-10T03:26:07.304Z,22.00
2017-07-10T03:28:33.236Z,22.00
2017-07-10T03:30:59.172Z,22.00
2017-07-10T03:33:25.139Z,22.00
2017-07-10T03:35:51.093Z,22.00
2017-07-10T03:38:17.037Z,22.10
2017-07-10T03:40:42.988Z,22.00
2017-07-10T03:43:08.920Z,22.00
2017-07-10T03:45:34.860Z,22.00
2017-07-10T03:48:00.795Z,22.00
2017-07-10T03:50:26.728Z,21.90
2017-07-10T03:52:52.646Z,21.90
2017-07-10T03:55:18.568Z,21.90
2017-07-10T03:57:45.322Z,21.80
2017-07-10T04:00:11.337Z,21.80
2017-07-10T04:02:37.276Z,21.70
2017-07-10T04:05:03.217Z,21.70
2017-07-10T04:07:29.164Z,21.60
2017-07-10T04:09:55.131Z,21.70
2017-07-10T04:12:21.090Z,21.60
2017-07-10T04:14:48.004Z,21.60
2017-07-10T04:17:13.904Z,21.60
2017-07-10T04:19:39.919Z,21.60
2017-07-10T04:22:05.908Z,21.60
2017-07-10T04:24:31.823Z,21.60
2017-07-10T04:26:57.745Z,21.60
2017-07-10T04:29:23.676Z,21.50
2017-07-10T04:31:50.468Z,21.40
2017-07-10T04:34:16.435Z,21.40
2017-07-10T04:36:42.374Z,21.40
2017-07-10T04:39:08.345Z,21.40
2017-07-10T04:41:35.091Z,21.30
2017-07-10T04:44:01.048Z,21.30
2017-07-10T04:46:26.988Z,21.30
2017-07-10T04:48:53.052Z,21.40
2017-07-10T04:51:19.027Z,21.30
2017-07-10T04:53:44.944Z,21.40
2017-07-10T04:56:10.991Z,21.50
2017-07-10T04:58:36.977Z,21.60
2017-07-10T05:01:02.905Z,21.70
2017-07-10T05:03:30.528Z,21.70
2017-07-10T05:05:56.477Z,21.70
2017-07-10T05:08:22.405Z,21.70
2017-07-10T05:10:48.337Z,21.70
2017-07-10T05:13:14.315Z,21.70
2017-07-10T05:15:40.267Z,21.70
2017-07-10T05:18:06.188Z,21.80
2017-07-10T05:20:32.132Z,21.80
2017-07-10T05:22:58.103Z,21.90
2017-07-10T05:25:24.044Z,21.80
2017-07-10T05:27:49.970Z,21.70
2017-07-10T05:30:16.822Z,21.80
2017-07-10T05:32:42.744Z,21.80
2017-07-10T05:35:08.738Z,21.70
2017-07-10T05:37:34.690Z,21.70
2017-07-10T05:40:00.668Z,21.70
2017-07-10T05:42:28.339Z,21.70
2017-07-10T05:44:54.292Z,21.60
2017-07-10T05:47:20.281Z,21.40
2017-07-10T05:49:47.320Z,21.30
2017-07-10T05:52:13.360Z,21.30
2017-07-10T05:54:39.385Z,21.30
2017-07-10T05:57:05.325Z,21.20
2017-07-10T05:59:31.246Z,21.30
2017-07-10T06:01:57.227Z,21.30
2017-07-10T06:04:23.337Z,21.20
2017-07-10T06:06:49.291Z,21.20
2017-07-10T06:09:15.329Z,21.20
2017-07-10T06:11:41.322Z,21.00
2017-07-10T06:14:07.273Z,21.10
2017-07-10T06:16:33.317Z,21.00
2017-07-10T06:18:59.314Z,21.00
2017-07-10T06:21:26.088Z,20.90
2017-07-10T06:23:52.082Z,20.90
2017-07-10T06:26:18.000Z,21.00
2017-07-10T06:28:43.969Z,21.00
2017-07-10T06:31:09.933Z,21.10
2017-07-10T06:33:35.892Z,21.20
2017-07-10T06:36:02.012Z,21.30
2017-07-10T06:38:27.996Z,21.40
2017-07-10T06:40:53.947Z,21.50
2017-07-10T06:43:19.968Z,21.50
2017-07-10T06:45:45.948Z,21.60
2017-07-10T06:48:12.008Z,21.60
2017-07-10T06:50:38.669Z,21.70
2017-07-10T06:53:04.647Z,21.60
2017-07-10T06:55:31.122Z,21.70
2017-07-10T06:57:57.060Z,21.60
2017-07-10T07:00:23.020Z,21.70
2017-07-10T07:02:48.998Z,21.60
2017-07-10T07:05:14.964Z,21.60
2017-07-10T07:07:40.932Z,21.50
2017-07-10T07:10:06.904Z,21.40
2017-07-10T07:12:32.905Z,21.30
2017-07-10T07:14:58.848Z,21.30
2017-07-10T07:17:24.769Z,21.30
2017-07-10T07:19:50.717Z,21.20
2017-07-10T07:22:16.709Z,21.20
2017-07-10T07:24:42.704Z,21.20
2017-07-10T07:27:08.626Z,21.30
2017-07-10T07:29:34.535Z,21.40
2017-07-10T07:32:00.483Z,21.50
2017-07-10T07:34:26.465Z,21.60
2017-07-10T07:36:52.446Z,21.60
2017-07-10T07:39:18.411Z,21.50
2017-07-10T07:41:44.393Z,21.30
2017-07-10T07:44:11.131Z,21.40
2017-07-10T07:46:37.067Z,21.30
2017-07-10T07:49:03.085Z,21.10
2017-07-10T07:51:29.254Z,21.30
2017-07-10T07:53:55.389Z,21.30
2017-07-10T07:56:21.356Z,21.30
2017-07-10T07:58:47.303Z,21.40
2017-07-10T08:01:13.426Z,21.50
2017-07-10T08:03:39.745Z,21.60
2017-07-10T08:06:06.123Z,21.60
2017-07-10T08:08:32.050Z,21.70
2017-07-10T08:10:58.088Z,21.80
2017-07-10T08:13:24.111Z,21.80
2017-07-10T08:15:50.063Z,21.80
2017-07-10T08:18:15.983Z,21.80
2017-07-10T08:20:41.968Z,21.80
2017-07-10T08:23:07.980Z,21.90
2017-07-10T08:25:33.954Z,22.00
2017-07-10T08:27:59.886Z,22.00
2017-07-10T08:30:25.998Z,22.00
2017-07-10T08:32:52.092Z,22.00
2017-07-10T08:35:18.072Z,22.10
2017-07-10T08:37:44.036Z,22.20
2017-07-10T08:40:09.981Z,22.40
2017-07-10T08:42:35.932Z,22.40
2017-07-10T08:45:01.943Z,22.40
2017-07-10T08:47:27.880Z,22.40
2017-07-10T08:49:53.848Z,22.30
2017-07-10T08:52:20.511Z,22.30
2017-07-10T08:54:46.516Z,22.20
2017-07-10T08:57:12.497Z,22.30
2017-07-10T08:59:38.722Z,22.40
2017-07-10T09:02:04.721Z,22.30
2017-07-10T09:04:30.690Z,22.40
2017-07-10T09:06:56.631Z,22.40
2017-07-10T09:09:22.572Z,22.50
2017-07-10T09:11:48.526Z,22.50
2017-07-10T09:14:14.501Z,22.50
2017-07-10T09:16:40.421Z,22.60
2017-07-10T09:19:06.387Z,22.60
2017-07-10T09:21:32.361Z,22.70
2017-07-10T09:23:58.314Z,22.70
2017-07-10T09:26:24.264Z,22.80
2017-07-10T09:28:50.209Z,22.90
2017-07-10T09:31:16.621Z,22.90
2017-07-10T09:33:42.597Z,22.80
2017-07-10T09:36:08.617Z,22.80
2017-07-10T09:38:34.589Z,22.80
2017-07-10T09:41:00.543Z,22.80
2017-07-10T09:43:26.558Z,23.00
2017-07-10T09:45:52.543Z,22.90
2017-07-10T09:48:18.644Z,23.00
2017-07-10T09:50:44.608Z,23.20
2017-07-10T09:53:11.356Z,23.20
2017-07-10T09:55:37.342Z,23.20
2017-07-10T09:58:03.324Z,23.40
2017-07-10T10:00:29.349Z,23.60
2017-07-10T10:02:55.296Z,23.70
2017-07-10T10:05:21.363Z,23.80
2017-07-10T10:07:48.093Z,23.70
2017-07-10T10:10:14.051Z,23.70
2017-07-10T10:12:40.067Z,23.50
2017-07-10T10:15:06.052Z,23.60
2017-07-10T10:17:31.984Z,23.70
2017-07-10T10:19:57.911Z,23.90
2017-07-10T10:22:23.835Z,24.00
2017-07-10T10:24:49.760Z,23.90
2017-07-10T10:27:15.686Z,23.80
2017-07-10T10:29:41.658Z,23.80
2017-07-10T10:32:07.627Z,23.80
2017-07-10T10:34:33.564Z,24.10
2017-07-10T10:37:00.395Z,24.30
2017-07-10T10:39:26.534Z,24.40
2017-07-10T10:41:52.515Z,24.60
2017-07-10T10:44:18.495Z,24.70
2017-07-10T10:46:45.186Z,24.50
2017-07-10T10:49:11.156Z,24.30
2017-07-10T10:51:37.140Z,24.50
2017-07-10T10:54:03.203Z,24.30
2017-07-10T10:56:29.160Z,24.30
2017-07-10T10:58:55.153Z,24.30
2017-07-10T11:01:21.100Z,24.10
2017-07-10T11:03:47.086Z,24.20
2017-07-10T11:06:13.025Z,24.10
2017-07-10T11:08:38.954Z,24.30
2017-07-10T11:11:04.945Z,24.40
2017-07-10T11:13:30.913Z,24.40
2017-07-10T11:15:56.832Z,24.60
2017-07-10T11:18:22.803Z,24.80
2017-07-10T11:20:48.760Z,24.80
2017-07-10T11:23:14.715Z,24.90
2017-07-10T11:25:41.793Z,24.90
2017-07-10T11:28:07.857Z,24.90
2017-07-10T11:30:33.842Z,24.80
2017-07-10T11:32:59.886Z,24.80
2017-07-10T11:35:25.852Z,24.60
2017-07-10T11:37:51.831Z,24.50
2017-07-10T11:40:17.940Z,24.40
2017-07-10T11:42:46.856Z,24.30
2017-07-10T11:45:12.781Z,24.50
2017-07-10T11:47:38.719Z,24.50
2017-07-10T11:50:04.948Z,24.40
2017-07-10T11:52:30.879Z,24.40
2017-07-10T11:54:56.831Z,24.40
2017-07-10T11:57:22.852Z,24.50
2017-07-10T11:59:48.847Z,24.60
2017-07-10T12:02:16.567Z,24.80
2017-07-10T12:04:42.581Z,24.70
2017-07-10T12:07:08.499Z,24.80
2017-07-10T12:09:34.521Z,25.00
2017-07-10T12:12:00.576Z,25.00
2017-07-10T12:14:28.269Z,25.00
2017-07-10T12:16:54.401Z,24.90
2017-07-10T12:19:20.649Z,24.80
2017-07-10T12:21:46.670Z,24.80
2017-07-10T12:24:12.718Z,24.80
2017-07-10T12:26:38.674Z,24.80
2017-07-10T12:29:04.633Z,24.90
2017-07-10T12:31:31.443Z,24.90
2017-07-10T12:33:57.461Z,25.00
2017-07-10T12:36:23.412Z,25.10
2017-07-10T12:38:50.328Z,25.20
2017-07-10T12:41:17.025Z,25.20
2017-07-10T12:43:42.998Z,25.10
2017-07-10T12:46:08.927Z,25.20
2017-07-10T12:48:34.882Z,25.00
2017-07-10T12:51:00.855Z,24.90
2017-07-10T12:53:26.797Z,24.60
2017-07-10T12:55:52.772Z,24.80
2017-07-10T12:58:18.777Z,25.00
2017-07-10T13:00:44.769Z,25.20
2017-07-10T13:03:10.721Z,25.60
2017-07-10T13:05:36.737Z,26.00
2017-07-10T13:08:02.751Z,26.30
2017-07-10T13:10:28.703Z,26.10
2017-07-10T13:12:54.718Z,26.10
2017-07-10T13:15:20.710Z,25.90
2017-07-10T13:17:46.644Z,24.90
2017-07-10T13:20:12.592Z,24.40
2017-07-10T13:22:38.909Z,24.00
2017-07-10T13:25:04.853Z,23.90
2017-07-10T13:27:30.813Z,23.70
2017-07-10T13:29:56.920Z,23.60
2017-07-10T13:32:22.850Z,23.40
2017-07-10T13:34:48.747Z,23.40
2017-07-10T13:37:14.663Z,23.30
2017-07-10T13:39:40.596Z,23.20
2017-07-10T13:42:06.685Z,23.20
2017-07-10T13:44:32.620Z,23.30
2017-07-10T13:46:59.258Z,23.50
2017-07-10T13:49:25.205Z,23.50
2017-07-10T13:51:51.128Z,23.50
2017-07-10T13:54:17.108Z,23.50
2017-07-10T13:56:43.075Z,23.50
2017-07-10T13:59:09.048Z,23.80
2017-07-10T14:01:34.987Z,24.30
2017-07-10T14:04:01.713Z,25.10
2017-07-10T14:06:27.657Z,25.10
2017-07-10T14:08:53.651Z,25.20
2017-07-10T14:11:19.622Z,25.60
2017-07-10T14:13:45.601Z,26.20
2017-07-10T14:16:11.542Z,26.50
2017-07-10T14:18:37.504Z,26.40
2017-07-10T14:21:03.459Z,26.20
2017-07-10T14:23:29.403Z,26.10
2017-07-10T14:25:55.419Z,25.80
2017-07-10T14:28:22.371Z,25.70
2017-07-10T14:30:48.319Z,25.60
2017-07-10T14:33:14.391Z,25.70
2017-07-10T14:35:41.135Z,26.20
2017-07-10T14:38:07.177Z,26.20
2017-07-10T14:40:33.116Z,26.70
2017-07-10T14:42:59.112Z,27.00
2017-07-10T14:45:25.058Z,27.30
2017-07-10T14:47:50.982Z,27.10
2017-07-10T14:50:16.933Z,26.90
2017-07-10T14:52:42.915Z,26.60
2017-07-10T14:55:08.994Z,26.40
2017-07-10T14:57:34.924Z,26.20
2017-07-10T15:00:01.656Z,26.20
2017-07-10T15:02:27.629Z,26.10
2017-07-10T15:04:53.759Z,26.10
2017-07-10T15:07:19.784Z,26.20
2017-07-10T15:09:45.773Z,26.30
2017-07-10T15:12:11.797Z,26.60
2017-07-10T15:14:37.770Z,27.00
2017-07-10T15:17:03.765Z,27.30
2017-07-10T15:19:29.730Z,27.70
2017-07-10T15:21:56.633Z,27.90
2017-07-10T15:24:22.628Z,27.50
2017-07-10T15:26:48.716Z,27.40
2017-07-10T15:29:14.659Z,27.40
2017-07-10T15:31:40.647Z,27.20
2017-07-10T15:34:06.858Z,26.90
2017-07-10T15:36:32.829Z,26.90
2017-07-10T15:38:58.787Z,26.90
2017-07-10T15:41:25.683Z,27.00
2017-07-10T15:43:51.738Z,26.90
2017-07-10T15:46:18.789Z,27.30
2017-07-10T15:48:44.753Z,27.50
2017-07-10T15:51:10.705Z,27.60
2017-07-10T15:53:36.716Z,27.40
2017-07-10T15:56:03.040Z,27.10
2017-07-10T15:58:28.999Z,27.00
2017-07-10T16:00:54.958Z,26.90
2017-07-10T16:03:20.954Z,26.70
2017-07-10T16:05:46.885Z,26.60
2017-07-10T16:08:12.878Z,26.20
2017-07-10T16:10:38.848Z,25.90
2017-07-10T16:13:04.852Z,25.60
2017-07-10T16:15:30.802Z,25.40
2017-07-10T16:17:56.749Z,25.40
2017-07-10T16:20:22.806Z,25.40
2017-07-10T16:22:50.742Z,25.40
2017-07-10T16:25:16.796Z,25.30
2017-07-10T16:27:42.850Z,25.20
2017-07-10T16:30:08.822Z,25.20
2017-07-10T16:32:36.172Z,25.20
2017-07-10T16:35:02.900Z,25.20
2017-07-10T16:37:29.112Z,25.10
2017-07-10T16:39:55.104Z,25.20
2017-07-10T16:42:21.088Z,25.30
2017-07-10T16:44:47.119Z,25.30
2017-07-10T16:47:13.069Z,25.20
2017-07-10T16:49:39.001Z,25.10
2017-07-10T16:52:04.963Z,25.00
2017-07-10T16:54:30.929Z,24.90
2017-07-10T16:56:57.073Z,24.80
2017-07-10T16:59:23.134Z,24.80
2017-07-10T17:01:49.869Z,24.90
2017-07-10T17:04:15.816Z,24.80
2017-07-10T17:06:41.755Z,24.80
2017-07-10T17:09:07.774Z,24.80
2017-07-10T17:11:33.692Z,24.80
2017-07-10T17:13:59.631Z,24.70
2017-07-10T17:16:25.617Z,24.70
2017-07-10T17:18:51.615Z,24.70
2017-07-10T17:21:17.581Z,24.60
2017-07-10T17:23:43.760Z,24.50
2017-07-10T17:26:09.761Z,24.30
2017-07-10T17:28:35.681Z,24.30
2017-07-10T17:31:01.644Z,24.20
2017-07-10T17:33:27.601Z,24.20
2017-07-10T17:35:53.549Z,24.20
2017-07-10T17:38:19.560Z,24.10
2017-07-10T17:40:45.507Z,24.10
2017-07-10T17:43:11.580Z,24.00
2017-07-10T17:45:38.410Z,23.90
2017-07-10T17:48:04.682Z,23.80
2017-07-10T17:50:30.633Z,23.80
2017-07-10T17:52:56.649Z,23.90
2017-07-10T17:55:22.612Z,23.90
2017-07-10T17:57:48.582Z,23.90
2017-07-10T18:00:14.932Z,23.90
2017-07-10T18:02:41.022Z,23.90
2017-07-10T18:05:06.988Z,23.80
2017-07-10T18:07:33.807Z,23.90
2017-07-10T18:10:00.556Z,23.80
2017-07-10T18:12:26.583Z,23.80
2017-07-10T18:14:53.285Z,23.80
2017-07-10T18:17:19.272Z,23.70
2017-07-10T18:19:45.235Z,23.80
2017-07-10T18:22:11.187Z,23.70
2017-07-10T18:24:37.140Z,23.80
2017-07-10T18:27:03.131Z,23.80
2017-07-10T18:29:29.099Z,23.80
2017-07-10T18:31:55.045Z,23.80
2017-07-10T18:34:21.015Z,23.90
2017-07-10T18:36:46.995Z,23.80
2017-07-10T18:39:12.933Z,23.80
2017-07-10T18:41:39.684Z,23.70
2017-07-10T18:44:05.616Z,23.70
2017-07-10T18:46:31.576Z,23.60
2017-07-10T18:48:57.581Z,23.60
2017-07-10T18:51:23.688Z,23.60
2017-07-10T18:53:49.847Z,23.60
2017-07-10T18:56:15.904Z,23.50
2017-07-10T18:58:42.650Z,23.30
2017-07-10T19:01:08.692Z,23.30
2017-07-10T19:03:34.617Z,23.40
2017-07-10T19:06:00.671Z,23.40
2017-07-10T19:08:26.620Z,23.70
2017-07-10T19:10:52.567Z,23.80
2017-07-10T19:13:18.557Z,23.70
2017-07-10T19:15:44.518Z,23.60
2017-07-10T19:18:10.463Z,23.40
2017-07-10T19:20:36.427Z,23.40
2017-07-10T19:23:02.459Z,23.30
2017-07-10T19:25:28.405Z,23.20
2017-07-10T19:27:54.389Z,23.20
2017-07-10T19:30:20.497Z,23.20
2017-07-10T19:32:46.450Z,23.20
2017-07-10T19:35:12.469Z,23.20
2017-07-10T19:37:38.418Z,23.20
2017-07-10T19:40:04.396Z,23.30
2017-07-10T19:42:30.324Z,23.20
2017-07-10T19:44:56.312Z,23.10
2017-07-10T19:47:22.386Z,23.00
2017-07-10T19:49:48.311Z,23.00
2017-07-10T19:52:14.305Z,23.00
2017-07-10T19:54:40.312Z,22.90
2017-07-10T19:57:07.271Z,22.90
2017-07-10T19:59:33.239Z,22.80
2017-07-10T20:01:59.237Z,22.80
2017-07-10T20:04:25.179Z,22.70
2017-07-10T20:06:51.180Z,22.80
2017-07-10T20:09:17.228Z,22.80
2017-07-10T20:11:43.177Z,22.80
2017-07-10T20:14:09.131Z,22.90
2017-07-10T20:16:35.148Z,22.90
2017-07-10T20:19:01.171Z,22.90
2017-07-10T20:21:27.130Z,22.80
2017-07-10T20:23:53.135Z,22.70
2017-07-10T20:26:19.288Z,22.70
2017-07-10T20:28:45.231Z,22.70
2017-07-10T20:31:11.177Z,22.70
2017-07-10T20:33:37.204Z,22.70
2017-07-10T20:36:03.156Z,22.70
2017-07-10T20:38:29.097Z,22.80
2017-07-10T20:40:55.163Z,22.80
2017-07-10T20:43:21.182Z,22.80
2017-07-10T20:45:47.188Z,22.70
2017-07-10T20:48:13.201Z,22.70
2017-07-10T20:50:39.364Z,22.70
2017-07-10T20:53:05.290Z,22.70
2017-07-10T20:55:32.867Z,22.60
2017-07-10T20:57:58.872Z,22.60
2017-07-10T21:00:24.867Z,22.50
2017-07-10T21:02:50.912Z,22.50
2017-07-10T21:05:16.835Z,22.30
2017-07-10T21:07:42.816Z,22.30
2017-07-10T21:10:08.763Z,22.30
2017-07-10T21:12:34.727Z,22.20
2017-07-10T21:15:00.683Z,22.30
2017-07-10T21:17:27.635Z,22.30
2017-07-10T21:19:53.592Z,22.30
2017-07-10T21:22:19.633Z,22.30
2017-07-10T21:24:45.669Z,22.30
2017-07-10T21:27:11.606Z,22.20
2017-07-10T21:29:37.538Z,22.20
2017-07-10T21:32:03.528Z,22.20
2017-07-10T21:34:29.589Z,22.20
2017-07-10T21:36:55.548Z,22.30
2017-07-10T21:39:22.240Z,22.30
2017-07-10T21:41:48.845Z,22.30
2017-07-10T21:44:14.814Z,22.30
2017-07-10T21:46:40.785Z,22.30
2017-07-10T21:49:06.689Z,22.30
2017-07-10T21:51:33.458Z,22.30
2017-07-10T21:53:59.405Z,22.30
2017-07-10T21:56:25.367Z,22.30
2017-07-10T21:58:52.035Z,22.20
2017-07-10T22:01:17.996Z,22.20
2017-07-10T22:03:44.528Z,22.20
2017-07-10T22:06:10.492Z,22.20
2017-07-10T22:08:36.773Z,22.20
2017-07-10T22:11:02.748Z,22.20
2017-07-10T22:13:28.791Z,22.20
2017-07-10T22:15:54.794Z,22.20
2017-07-10T22:18:20.744Z,22.20
2017-07-10T22:20:46.688Z,22.10
2017-07-10T22:23:12.613Z,22.10
2017-07-10T22:25:38.528Z,22.10
2017-07-10T22:28:04.501Z,22.00
2017-07-10T22:30:30.416Z,22.00
2017-07-10T22:32:56.379Z,21.90
2017-07-10T22:35:22.322Z,21.90
2017-07-10T22:37:48.289Z,21.90
2017-07-10T22:40:14.200Z,21.90
2017-07-10T22:42:40.156Z,21.70
2017-07-10T22:45:06.097Z,21.80
2017-07-10T22:47:32.017Z,21.80
2017-07-10T22:49:57.924Z,21.70
2017-07-10T22:52:23.824Z,21.60
2017-07-10T22:54:49.741Z,21.70
2017-07-10T22:57:15.677Z,21.60
2017-07-10T22:59:41.685Z,21.60
2017-07-10T23:02:07.620Z,21.60
2017-07-10T23:04:33.640Z,21.60
2017-07-10T23:06:59.568Z,21.60
2017-07-10T23:09:25.537Z,21.50
2017-07-10T23:11:51.693Z,21.50
2017-07-10T23:14:17.659Z,21.60
2017-07-10T23:16:43.644Z,21.60
2017-07-10T23:19:09.592Z,21.40
2017-07-10T23:21:35.542Z,21.20
2017-07-10T23:24:02.437Z,21.00
2017-07-10T23:26:28.402Z,21.00
2017-07-10T23:28:55.165Z,20.90
2017-07-10T23:31:21.123Z,20.90
2017-07-10T23:33:47.057Z,20.90
2017-07-10T23:36:13.005Z,20.90
2017-07-10T23:38:39.704Z,21.00
2017-07-10T23:41:05.623Z,21.00
2017-07-10T23:43:31.561Z,21.00
2017-07-10T23:45:57.526Z,21.00
2017-07-10T23:48:23.486Z,21.10
2017-07-10T23:50:49.447Z,21.10
2017-07-10T23:53:16.128Z,21.10
2017-07-10T23:55:42.090Z,21.00
2017-07-10T23:58:08.083Z,21.00
